sensor_id;sensor_type;location;lat;lon;timestamp;P1;durP1;ratioP1;P2;durP2;ratioP2
63050;SDS011;49136;47.416;19.402;2022-08-18T00:00:46;17.75;;;6.15;;
63050;SDS011;49136;47.416;19.402;2022-08-18T00:03:12;15.63;;;6.43;;
63050;SDS011;49136;47.416;19.402;2022-08-18T00:05:37;10.57;;;5.88;;
63050;SDS011;49136;47.416;19.402;2022-08-18T00:08:04;12.90;;;7.10;;
63050;SDS011;49136;47.416;19.402;2022-08-18T00:10:29;14.68;;;7.43;;
63050;SDS011;49136;47.416;19.402;2022-08-18T00:12:55;13.80;;;7.72;;
63050;SDS011;49136;47.416;19.402;2022-08-18T00:15:21;13.40;;;6.97;;
63050;SDS011;49136;47.416;19.402;2022-08-18T00:17:47;17.63;;;7.78;;
63050;SDS011;49136;47.416;19.402;2022-08-18T00:20:14;13.02;;;7.47;;
63050;SDS011;49136;47.416;19.402;2022-08-18T00:22:42;14.30;;;7.90;;
63050;SDS011;49136;47.416;19.402;2022-08-18T00:25:08;19.35;;;9.55;;
63050;SDS011;49136;47.416;19.402;2022-08-18T00:27:36;13.75;;;8.38;;
63050;SDS011;49136;47.416;19.402;2022-08-18T00:30:05;14.60;;;7.57;;
63050;SDS011;49136;47.416;19.402;2022-08-18T00:32:36;13.60;;;8.55;;
63050;SDS011;49136;47.416;19.402;2022-08-18T00:35:07;17.60;;;7.97;;
63050;SDS011;49136;47.416;19.402;2022-08-18T00:37:37;16.50;;;8.52;;
63050;SDS011;49136;47.416;19.402;2022-08-18T00:40:03;23.13;;;8.82;;
63050;SDS011;49136;47.416;19.402;2022-08-18T00:42:29;17.02;;;8.32;;
63050;SDS011;49136;47.416;19.402;2022-08-18T00:44:56;20.73;;;9.13;;
63050;SDS011;49136;47.416;19.402;2022-08-18T00:47:23;18.83;;;9.23;;
63050;SDS011;49136;47.416;19.402;2022-08-18T00:49:52;17.17;;;8.63;;
63050;SDS011;49136;47.416;19.402;2022-08-18T00:52:17;24.40;;;9.98;;
63050;SDS011;49136;47.416;19.402;2022-08-18T00:54:44;18.80;;;9.38;;
63050;SDS011;49136;47.416;19.402;2022-08-18T00:57:11;16.30;;;9.68;;
63050;SDS011;49136;47.416;19.402;2022-08-18T01:02:09;14.48;;;8.68;;
63050;SDS011;49136;47.416;19.402;2022-08-18T01:04:51;21.10;;;9.40;;
63050;SDS011;49136;47.416;19.402;2022-08-18T01:07:26;19.23;;;9.98;;
63050;SDS011;49136;47.416;19.402;2022-08-18T01:09:57;22.40;;;9.90;;
63050;SDS011;49136;47.416;19.402;2022-08-18T01:12:24;17.20;;;9.20;;
63050;SDS011;49136;47.416;19.402;2022-08-18T01:14:50;26.30;;;9.35;;
63050;SDS011;49136;47.416;19.402;2022-08-18T01:17:17;19.30;;;9.07;;
63050;SDS011;49136;47.416;19.402;2022-08-18T01:20:01;19.20;;;10.95;;
63050;SDS011;49136;47.416;19.402;2022-08-18T01:25:15;21.63;;;9.70;;
63050;SDS011;49136;47.416;19.402;2022-08-18T01:28:01;22.45;;;9.85;;
63050;SDS011;49136;47.416;19.402;2022-08-18T01:30:29;20.75;;;8.93;;
63050;SDS011;49136;47.416;19.402;2022-08-18T01:32:56;17.52;;;10.02;;
63050;SDS011;49136;47.416;19.402;2022-08-18T01:35:23;23.33;;;10.75;;
63050;SDS011;49136;47.416;19.402;2022-08-18T01:37:50;20.15;;;11.10;;
63050;SDS011;49136;47.416;19.402;2022-08-18T01:40:19;23.20;;;11.10;;
63050;SDS011;49136;47.416;19.402;2022-08-18T01:42:46;20.58;;;10.45;;
63050;SDS011;49136;47.416;19.402;2022-08-18T01:45:12;21.98;;;11.30;;
63050;SDS011;49136;47.416;19.402;2022-08-18T01:47:39;25.15;;;11.05;;
63050;SDS011;49136;47.416;19.402;2022-08-18T01:50:06;26.50;;;11.30;;
63050;SDS011;49136;47.416;19.402;2022-08-18T01:52:32;18.35;;;11.35;;
63050;SDS011;49136;47.416;19.402;2022-08-18T01:54:59;19.25;;;11.05;;
63050;SDS011;49136;47.416;19.402;2022-08-18T01:57:25;19.40;;;11.27;;
63050;SDS011;49136;47.416;19.402;2022-08-18T01:59:52;25.98;;;11.52;;
63050;SDS011;49136;47.416;19.402;2022-08-18T02:02:19;26.10;;;12.35;;
63050;SDS011;49136;47.416;19.402;2022-08-18T02:04:48;21.53;;;11.20;;
63050;SDS011;49136;47.416;19.402;2022-08-18T02:07:17;23.40;;;11.60;;
63050;SDS011;49136;47.416;19.402;2022-08-18T02:09:42;21.85;;;10.93;;
63050;SDS011;49136;47.416;19.402;2022-08-18T02:12:08;23.48;;;12.00;;
63050;SDS011;49136;47.416;19.402;2022-08-18T02:14:34;25.65;;;11.18;;
63050;SDS011;49136;47.416;19.402;2022-08-18T02:17:01;23.95;;;12.52;;
63050;SDS011;49136;47.416;19.402;2022-08-18T02:19:32;28.27;;;12.68;;
63050;SDS011;49136;47.416;19.402;2022-08-18T02:22:03;19.92;;;11.68;;
63050;SDS011;49136;47.416;19.402;2022-08-18T02:24:29;22.27;;;11.43;;
63050;SDS011;49136;47.416;19.402;2022-08-18T02:26:55;19.65;;;11.52;;
63050;SDS011;49136;47.416;19.402;2022-08-18T02:29:21;28.15;;;12.38;;
63050;SDS011;49136;47.416;19.402;2022-08-18T02:31:46;25.75;;;12.93;;
63050;SDS011;49136;47.416;19.402;2022-08-18T02:34:12;22.25;;;12.18;;
63050;SDS011;49136;47.416;19.402;2022-08-18T02:36:38;23.23;;;11.90;;
63050;SDS011;49136;47.416;19.402;2022-08-18T02:39:04;20.58;;;11.50;;
63050;SDS011;49136;47.416;19.402;2022-08-18T02:41:29;36.47;;;13.07;;
63050;SDS011;49136;47.416;19.402;2022-08-18T02:43:55;23.80;;;13.13;;
63050;SDS011;49136;47.416;19.402;2022-08-18T02:46:21;25.85;;;13.10;;
63050;SDS011;49136;47.416;19.402;2022-08-18T02:48:46;22.25;;;12.05;;
63050;SDS011;49136;47.416;19.402;2022-08-18T02:51:15;22.65;;;13.48;;
63050;SDS011;49136;47.416;19.402;2022-08-18T02:53:42;24.70;;;11.88;;
63050;SDS011;49136;47.416;19.402;2022-08-18T02:58:57;23.58;;;12.20;;
63050;SDS011;49136;47.416;19.402;2022-08-18T03:01:30;27.75;;;14.27;;
63050;SDS011;49136;47.416;19.402;2022-08-18T03:03:57;29.55;;;13.15;;
63050;SDS011;49136;47.416;19.402;2022-08-18T03:06:25;23.08;;;13.48;;
63050;SDS011;49136;47.416;19.402;2022-08-18T03:08:52;25.90;;;13.50;;
63050;SDS011;49136;47.416;19.402;2022-08-18T03:11:19;22.00;;;12.73;;
63050;SDS011;49136;47.416;19.402;2022-08-18T03:13:50;29.23;;;14.60;;
63050;SDS011;49136;47.416;19.402;2022-08-18T03:16:16;28.92;;;14.77;;
63050;SDS011;49136;47.416;19.402;2022-08-18T03:18:43;32.08;;;14.52;;
63050;SDS011;49136;47.416;19.402;2022-08-18T03:21:10;29.95;;;15.88;;
63050;SDS011;49136;47.416;19.402;2022-08-18T03:23:41;25.35;;;13.73;;
63050;SDS011;49136;47.416;19.402;2022-08-18T03:26:07;27.85;;;14.68;;
63050;SDS011;49136;47.416;19.402;2022-08-18T03:28:36;27.45;;;13.98;;
63050;SDS011;49136;47.416;19.402;2022-08-18T03:31:05;25.63;;;13.93;;
63050;SDS011;49136;47.416;19.402;2022-08-18T03:33:31;28.77;;;14.65;;
63050;SDS011;49136;47.416;19.402;2022-08-18T03:36:04;25.13;;;13.48;;
63050;SDS011;49136;47.416;19.402;2022-08-18T03:38:30;34.33;;;14.68;;
63050;SDS011;49136;47.416;19.402;2022-08-18T03:40:55;22.88;;;13.13;;
63050;SDS011;49136;47.416;19.402;2022-08-18T03:43:21;26.58;;;14.13;;
63050;SDS011;49136;47.416;19.402;2022-08-18T03:45:46;26.50;;;13.57;;
63050;SDS011;49136;47.416;19.402;2022-08-18T03:48:12;32.20;;;14.07;;
63050;SDS011;49136;47.416;19.402;2022-08-18T03:50:37;29.88;;;13.10;;
63050;SDS011;49136;47.416;19.402;2022-08-18T03:53:03;28.10;;;14.10;;
63050;SDS011;49136;47.416;19.402;2022-08-18T03:55:29;31.40;;;14.35;;
63050;SDS011;49136;47.416;19.402;2022-08-18T03:57:59;28.88;;;14.95;;
63050;SDS011;49136;47.416;19.402;2022-08-18T04:00:27;26.17;;;14.60;;
63050;SDS011;49136;47.416;19.402;2022-08-18T04:02:57;23.30;;;14.57;;
63050;SDS011;49136;47.416;19.402;2022-08-18T04:05:24;23.33;;;13.98;;
63050;SDS011;49136;47.416;19.402;2022-08-18T04:07:50;29.67;;;15.45;;
63050;SDS011;49136;47.416;19.402;2022-08-18T04:10:15;25.95;;;14.20;;
63050;SDS011;49136;47.416;19.402;2022-08-18T04:12:41;26.55;;;14.88;;
63050;SDS011;49136;47.416;19.402;2022-08-18T04:15:07;25.65;;;13.48;;
63050;SDS011;49136;47.416;19.402;2022-08-18T04:17:33;27.67;;;14.82;;
63050;SDS011;49136;47.416;19.402;2022-08-18T04:19:59;28.02;;;14.13;;
63050;SDS011;49136;47.416;19.402;2022-08-18T04:22:25;29.55;;;13.30;;
63050;SDS011;49136;47.416;19.402;2022-08-18T04:24:51;32.35;;;14.98;;
63050;SDS011;49136;47.416;19.402;2022-08-18T04:27:18;29.42;;;14.40;;
63050;SDS011;49136;47.416;19.402;2022-08-18T04:29:45;34.38;;;13.60;;
63050;SDS011;49136;47.416;19.402;2022-08-18T04:32:11;26.33;;;14.35;;
63050;SDS011;49136;47.416;19.402;2022-08-18T04:34:36;28.33;;;14.30;;
63050;SDS011;49136;47.416;19.402;2022-08-18T04:37:01;33.08;;;14.10;;
63050;SDS011;49136;47.416;19.402;2022-08-18T04:39:27;37.33;;;13.95;;
63050;SDS011;49136;47.416;19.402;2022-08-18T04:41:53;31.98;;;15.05;;
63050;SDS011;49136;47.416;19.402;2022-08-18T04:44:19;30.48;;;14.68;;
63050;SDS011;49136;47.416;19.402;2022-08-18T04:46:49;28.38;;;13.70;;
63050;SDS011;49136;47.416;19.402;2022-08-18T04:49:17;28.50;;;13.98;;
63050;SDS011;49136;47.416;19.402;2022-08-18T04:51:46;28.00;;;14.65;;
63050;SDS011;49136;47.416;19.402;2022-08-18T04:54:43;28.90;;;14.20;;
63050;SDS011;49136;47.416;19.402;2022-08-18T04:57:12;30.02;;;13.65;;
63050;SDS011;49136;47.416;19.402;2022-08-18T04:59:40;31.77;;;15.30;;
63050;SDS011;49136;47.416;19.402;2022-08-18T05:02:08;29.85;;;14.02;;
63050;SDS011;49136;47.416;19.402;2022-08-18T05:04:35;26.23;;;14.57;;
63050;SDS011;49136;47.416;19.402;2022-08-18T05:07:04;21.92;;;12.32;;
63050;SDS011;49136;47.416;19.402;2022-08-18T05:09:30;24.63;;;13.13;;
63050;SDS011;49136;47.416;19.402;2022-08-18T05:11:55;37.90;;;13.48;;
63050;SDS011;49136;47.416;19.402;2022-08-18T05:14:20;21.35;;;12.85;;
63050;SDS011;49136;47.416;19.402;2022-08-18T05:16:46;29.10;;;14.00;;
63050;SDS011;49136;47.416;19.402;2022-08-18T05:19:12;28.73;;;13.95;;
63050;SDS011;49136;47.416;19.402;2022-08-18T05:21:39;27.77;;;13.40;;
63050;SDS011;49136;47.416;19.402;2022-08-18T05:24:06;27.70;;;13.57;;
63050;SDS011;49136;47.416;19.402;2022-08-18T05:26:32;25.23;;;11.65;;
63050;SDS011;49136;47.416;19.402;2022-08-18T05:28:57;29.95;;;13.07;;
63050;SDS011;49136;47.416;19.402;2022-08-18T05:31:24;27.23;;;12.82;;
63050;SDS011;49136;47.416;19.402;2022-08-18T05:33:52;24.40;;;12.82;;
63050;SDS011;49136;47.416;19.402;2022-08-18T05:42:11;26.27;;;13.07;;
63050;SDS011;49136;47.416;19.402;2022-08-18T05:44:42;22.63;;;12.60;;
63050;SDS011;49136;47.416;19.402;2022-08-18T05:47:29;27.13;;;12.73;;
63050;SDS011;49136;47.416;19.402;2022-08-18T05:49:57;20.95;;;11.65;;
63050;SDS011;49136;47.416;19.402;2022-08-18T05:55:11;24.60;;;14.25;;
63050;SDS011;49136;47.416;19.402;2022-08-18T05:58:44;23.63;;;13.57;;
63050;SDS011;49136;47.416;19.402;2022-08-18T06:00:50;25.23;;;13.67;;
63050;SDS011;49136;47.416;19.402;2022-08-18T06:03:20;23.88;;;13.63;;
63050;SDS011;49136;47.416;19.402;2022-08-18T06:08:18;23.60;;;12.75;;
63050;SDS011;49136;47.416;19.402;2022-08-18T06:10:48;18.83;;;10.52;;
63050;SDS011;49136;47.416;19.402;2022-08-18T06:13:15;24.48;;;12.88;;
63050;SDS011;49136;47.416;19.402;2022-08-18T06:15:57;19.20;;;11.50;;
63050;SDS011;49136;47.416;19.402;2022-08-18T06:21:28;17.75;;;9.95;;
63050;SDS011;49136;47.416;19.402;2022-08-18T06:24:15;23.13;;;10.82;;
63050;SDS011;49136;47.416;19.402;2022-08-18T06:29:50;22.02;;;10.13;;
63050;SDS011;49136;47.416;19.402;2022-08-18T06:35:01;20.42;;;10.25;;
63050;SDS011;49136;47.416;19.402;2022-08-18T06:40:48;18.45;;;10.23;;
63050;SDS011;49136;47.416;19.402;2022-08-18T06:43:14;16.65;;;10.10;;
63050;SDS011;49136;47.416;19.402;2022-08-18T06:45:41;24.30;;;10.07;;
63050;SDS011;49136;47.416;19.402;2022-08-18T06:50:56;19.80;;;10.65;;
63050;SDS011;49136;47.416;19.402;2022-08-18T06:56:19;22.27;;;9.93;;
63050;SDS011;49136;47.416;19.402;2022-08-18T06:58:47;17.25;;;10.13;;
63050;SDS011;49136;47.416;19.402;2022-08-18T07:01:12;15.40;;;9.38;;
63050;SDS011;49136;47.416;19.402;2022-08-18T07:08:39;18.13;;;10.10;;
63050;SDS011;49136;47.416;19.402;2022-08-18T07:13:37;19.58;;;11.15;;
63050;SDS011;49136;47.416;19.402;2022-08-18T07:16:14;22.08;;;10.15;;
63050;SDS011;49136;47.416;19.402;2022-08-18T07:18:44;17.10;;;9.88;;
63050;SDS011;49136;47.416;19.402;2022-08-18T07:21:10;21.63;;;10.15;;
63050;SDS011;49136;47.416;19.402;2022-08-18T07:23:56;13.50;;;9.70;;
63050;SDS011;49136;47.416;19.402;2022-08-18T07:26:28;17.08;;;9.55;;
63050;SDS011;49136;47.416;19.402;2022-08-18T07:28:54;19.45;;;11.38;;
63050;SDS011;49136;47.416;19.402;2022-08-18T07:31:36;14.05;;;9.88;;
63050;SDS011;49136;47.416;19.402;2022-08-18T07:34:14;16.00;;;10.13;;
63050;SDS011;49136;47.416;19.402;2022-08-18T07:39:50;15.77;;;9.77;;
63050;SDS011;49136;47.416;19.402;2022-08-18T07:47:27;17.63;;;9.32;;
63050;SDS011;49136;47.416;19.402;2022-08-18T07:49:58;21.55;;;10.00;;
63050;SDS011;49136;47.416;19.402;2022-08-18T07:52:28;23.50;;;10.65;;
63050;SDS011;49136;47.416;19.402;2022-08-18T08:00:19;16.55;;;9.70;;
63050;SDS011;49136;47.416;19.402;2022-08-18T08:02:49;17.20;;;10.05;;
63050;SDS011;49136;47.416;19.402;2022-08-18T08:13:42;24.48;;;11.63;;
63050;SDS011;49136;47.416;19.402;2022-08-18T08:16:33;17.67;;;10.43;;
63050;SDS011;49136;47.416;19.402;2022-08-18T08:21:46;19.00;;;10.63;;
63050;SDS011;49136;47.416;19.402;2022-08-18T08:24:18;17.33;;;9.50;;
63050;SDS011;49136;47.416;19.402;2022-08-18T08:32:05;21.13;;;10.55;;
63050;SDS011;49136;47.416;19.402;2022-08-18T08:37:42;20.80;;;10.20;;
63050;SDS011;49136;47.416;19.402;2022-08-18T08:42:46;18.73;;;9.98;;
63050;SDS011;49136;47.416;19.402;2022-08-18T08:45:29;18.05;;;10.00;;
63050;SDS011;49136;47.416;19.402;2022-08-18T08:48:04;16.63;;;10.73;;
63050;SDS011;49136;47.416;19.402;2022-08-18T08:50:37;15.10;;;9.15;;
63050;SDS011;49136;47.416;19.402;2022-08-18T08:53:11;20.33;;;10.13;;
63050;SDS011;49136;47.416;19.402;2022-08-18T08:55:45;15.10;;;10.30;;
63050;SDS011;49136;47.416;19.402;2022-08-18T08:58:16;23.20;;;9.73;;
63050;SDS011;49136;47.416;19.402;2022-08-18T09:00:50;17.08;;;9.25;;
63050;SDS011;49136;47.416;19.402;2022-08-18T09:11:36;17.42;;;9.75;;
63050;SDS011;49136;47.416;19.402;2022-08-18T09:17:23;20.65;;;9.07;;
63050;SDS011;49136;47.416;19.402;2022-08-18T09:22:50;17.08;;;8.93;;
63050;SDS011;49136;47.416;19.402;2022-08-18T09:28:39;17.05;;;8.68;;
63050;SDS011;49136;47.416;19.402;2022-08-18T09:31:20;13.70;;;8.30;;
63050;SDS011;49136;47.416;19.402;2022-08-18T09:33:49;14.60;;;8.65;;
63050;SDS011;49136;47.416;19.402;2022-08-18T09:36:29;13.13;;;9.77;;
63050;SDS011;49136;47.416;19.402;2022-08-18T09:39:15;14.52;;;9.98;;
63050;SDS011;49136;47.416;19.402;2022-08-18T09:45:05;17.52;;;9.98;;
63050;SDS011;49136;47.416;19.402;2022-08-18T10:07:40;13.15;;;7.60;;
63050;SDS011;49136;47.416;19.402;2022-08-18T10:13:27;16.13;;;8.73;;
63050;SDS011;49136;47.416;19.402;2022-08-18T10:18:52;13.73;;;9.27;;
63050;SDS011;49136;47.416;19.402;2022-08-18T10:21:25;13.80;;;8.70;;
63050;SDS011;49136;47.416;19.402;2022-08-18T10:31:25;13.65;;;7.50;;
63050;SDS011;49136;47.416;19.402;2022-08-18T10:39:29;9.32;;;6.68;;
63050;SDS011;49136;47.416;19.402;2022-08-18T10:44:46;15.93;;;7.57;;
63050;SDS011;49136;47.416;19.402;2022-08-18T10:47:23;11.63;;;7.00;;
63050;SDS011;49136;47.416;19.402;2022-08-18T10:49:51;12.13;;;6.90;;
63050;SDS011;49136;47.416;19.402;2022-08-18T11:00:44;13.90;;;7.10;;
63050;SDS011;49136;47.416;19.402;2022-08-18T11:03:17;12.40;;;6.70;;
63050;SDS011;49136;47.416;19.402;2022-08-18T11:05:46;11.82;;;7.30;;
63050;SDS011;49136;47.416;19.402;2022-08-18T11:08:12;14.07;;;6.40;;
63050;SDS011;49136;47.416;19.402;2022-08-18T11:10:43;13.35;;;6.88;;
63050;SDS011;49136;47.416;19.402;2022-08-18T11:19:06;10.05;;;6.55;;
63050;SDS011;49136;47.416;19.402;2022-08-18T11:24:07;11.38;;;7.35;;
63050;SDS011;49136;47.416;19.402;2022-08-18T11:26:37;10.38;;;7.28;;
63050;SDS011;49136;47.416;19.402;2022-08-18T11:39:48;15.02;;;6.40;;
63050;SDS011;49136;47.416;19.402;2022-08-18T11:42:16;9.40;;;6.63;;
63050;SDS011;49136;47.416;19.402;2022-08-18T11:44:43;8.95;;;6.82;;
63050;SDS011;49136;47.416;19.402;2022-08-18T11:47:14;10.90;;;7.28;;
63050;SDS011;49136;47.416;19.402;2022-08-18T11:49:56;17.00;;;7.20;;
63050;SDS011;49136;47.416;19.402;2022-08-18T11:52:31;10.73;;;6.45;;
63050;SDS011;49136;47.416;19.402;2022-08-18T11:55:00;12.70;;;7.30;;
63050;SDS011;49136;47.416;19.402;2022-08-18T11:57:32;8.63;;;6.63;;
63050;SDS011;49136;47.416;19.402;2022-08-18T12:00:34;10.38;;;6.93;;
63050;SDS011;49136;47.416;19.402;2022-08-18T12:03:01;13.27;;;6.88;;
63050;SDS011;49136;47.416;19.402;2022-08-18T12:08:19;17.08;;;7.45;;
63050;SDS011;49136;47.416;19.402;2022-08-18T12:10:48;10.00;;;6.40;;
63050;SDS011;49136;47.416;19.402;2022-08-18T12:13:22;8.07;;;5.95;;
63050;SDS011;49136;47.416;19.402;2022-08-18T12:16:06;7.82;;;5.30;;
63050;SDS011;49136;47.416;19.402;2022-08-18T12:18:37;8.10;;;5.40;;
63050;SDS011;49136;47.416;19.402;2022-08-18T12:21:02;10.80;;;5.85;;
63050;SDS011;49136;47.416;19.402;2022-08-18T12:23:30;7.85;;;5.18;;
63050;SDS011;49136;47.416;19.402;2022-08-18T12:25:57;10.27;;;6.05;;
63050;SDS011;49136;47.416;19.402;2022-08-18T12:28:22;6.80;;;5.30;;
63050;SDS011;49136;47.416;19.402;2022-08-18T12:30:50;11.85;;;5.70;;
63050;SDS011;49136;47.416;19.402;2022-08-18T12:33:16;7.95;;;5.28;;
63050;SDS011;49136;47.416;19.402;2022-08-18T12:35:41;8.13;;;5.28;;
63050;SDS011;49136;47.416;19.402;2022-08-18T12:38:08;6.82;;;5.20;;
63050;SDS011;49136;47.416;19.402;2022-08-18T12:40:34;18.13;;;6.40;;
63050;SDS011;49136;47.416;19.402;2022-08-18T12:42:59;13.27;;;5.85;;
63050;SDS011;49136;47.416;19.402;2022-08-18T12:45:24;8.63;;;5.43;;
63050;SDS011;49136;47.416;19.402;2022-08-18T12:47:51;9.20;;;5.25;;
63050;SDS011;49136;47.416;19.402;2022-08-18T12:50:17;7.22;;;5.50;;
63050;SDS011;49136;47.416;19.402;2022-08-18T12:52:42;8.50;;;5.20;;
63050;SDS011;49136;47.416;19.402;2022-08-18T12:55:08;8.77;;;5.50;;
63050;SDS011;49136;47.416;19.402;2022-08-18T12:57:34;6.45;;;5.15;;
63050;SDS011;49136;47.416;19.402;2022-08-18T12:59:59;8.38;;;5.63;;
63050;SDS011;49136;47.416;19.402;2022-08-18T13:02:25;6.90;;;5.20;;
63050;SDS011;49136;47.416;19.402;2022-08-18T13:04:50;9.52;;;5.30;;
63050;SDS011;49136;47.416;19.402;2022-08-18T13:07:15;14.88;;;6.40;;
63050;SDS011;49136;47.416;19.402;2022-08-18T13:09:41;9.02;;;5.88;;
63050;SDS011;49136;47.416;19.402;2022-08-18T13:12:08;14.05;;;6.80;;
63050;SDS011;49136;47.416;19.402;2022-08-18T13:14:33;13.25;;;7.40;;
63050;SDS011;49136;47.416;19.402;2022-08-18T13:16:59;13.98;;;8.13;;
63050;SDS011;49136;47.416;19.402;2022-08-18T13:19:25;13.82;;;7.43;;
63050;SDS011;49136;47.416;19.402;2022-08-18T13:21:51;11.63;;;6.88;;
63050;SDS011;49136;47.416;19.402;2022-08-18T13:24:16;11.80;;;6.65;;
63050;SDS011;49136;47.416;19.402;2022-08-18T13:26:43;17.00;;;9.50;;
63050;SDS011;49136;47.416;19.402;2022-08-18T13:29:10;20.58;;;13.07;;
63050;SDS011;49136;47.416;19.402;2022-08-18T13:31:37;16.13;;;13.27;;
63050;SDS011;49136;47.416;19.402;2022-08-18T13:34:03;11.73;;;7.78;;
63050;SDS011;49136;47.416;19.402;2022-08-18T13:36:31;21.73;;;16.05;;
63050;SDS011;49136;47.416;19.402;2022-08-18T13:39:09;19.27;;;14.45;;
63050;SDS011;49136;47.416;19.402;2022-08-18T13:41:42;18.25;;;14.20;;
63050;SDS011;49136;47.416;19.402;2022-08-18T13:44:09;22.02;;;13.10;;
63050;SDS011;49136;47.416;19.402;2022-08-18T13:46:37;16.10;;;13.48;;
63050;SDS011;49136;47.416;19.402;2022-08-18T13:49:09;17.77;;;12.15;;
63050;SDS011;49136;47.416;19.402;2022-08-18T13:51:39;15.30;;;12.90;;
63050;SDS011;49136;47.416;19.402;2022-08-18T13:54:06;19.92;;;13.45;;
63050;SDS011;49136;47.416;19.402;2022-08-18T13:56:40;20.27;;;13.77;;
63050;SDS011;49136;47.416;19.402;2022-08-18T13:59:06;20.25;;;13.88;;
63050;SDS011;49136;47.416;19.402;2022-08-18T14:01:31;18.65;;;15.55;;
63050;SDS011;49136;47.416;19.402;2022-08-18T14:03:57;22.20;;;16.23;;
63050;SDS011;49136;47.416;19.402;2022-08-18T14:06:23;24.33;;;17.63;;
63050;SDS011;49136;47.416;19.402;2022-08-18T14:08:48;23.95;;;18.10;;
63050;SDS011;49136;47.416;19.402;2022-08-18T14:11:14;27.90;;;18.90;;
63050;SDS011;49136;47.416;19.402;2022-08-18T14:13:41;28.83;;;20.33;;
63050;SDS011;49136;47.416;19.402;2022-08-18T14:16:08;25.00;;;19.60;;
63050;SDS011;49136;47.416;19.402;2022-08-18T14:18:33;23.85;;;17.48;;
63050;SDS011;49136;47.416;19.402;2022-08-18T14:20:59;27.33;;;18.77;;
63050;SDS011;49136;47.416;19.402;2022-08-18T14:23:43;27.63;;;20.10;;
63050;SDS011;49136;47.416;19.402;2022-08-18T14:26:27;28.83;;;18.67;;
63050;SDS011;49136;47.416;19.402;2022-08-18T14:29:11;37.03;;;21.50;;
63050;SDS011;49136;47.416;19.402;2022-08-18T14:31:36;35.28;;;22.75;;
63050;SDS011;49136;47.416;19.402;2022-08-18T14:34:02;30.58;;;21.80;;
63050;SDS011;49136;47.416;19.402;2022-08-18T14:36:28;31.30;;;22.30;;
63050;SDS011;49136;47.416;19.402;2022-08-18T14:38:53;33.58;;;22.77;;
63050;SDS011;49136;47.416;19.402;2022-08-18T14:41:19;28.25;;;21.15;;
63050;SDS011;49136;47.416;19.402;2022-08-18T14:43:44;26.83;;;20.70;;
63050;SDS011;49136;47.416;19.402;2022-08-18T14:46:11;33.08;;;22.15;;
63050;SDS011;49136;47.416;19.402;2022-08-18T14:48:38;40.47;;;24.27;;
63050;SDS011;49136;47.416;19.402;2022-08-18T14:51:04;34.67;;;22.48;;
63050;SDS011;49136;47.416;19.402;2022-08-18T14:53:31;34.70;;;24.05;;
63050;SDS011;49136;47.416;19.402;2022-08-18T14:56:05;28.30;;;22.08;;
63050;SDS011;49136;47.416;19.402;2022-08-18T14:58:32;31.05;;;21.90;;
63050;SDS011;49136;47.416;19.402;2022-08-18T15:00:59;35.20;;;22.73;;
63050;SDS011;49136;47.416;19.402;2022-08-18T15:03:27;26.10;;;20.33;;
63050;SDS011;49136;47.416;19.402;2022-08-18T15:05:54;29.92;;;21.08;;
63050;SDS011;49136;47.416;19.402;2022-08-18T15:08:20;27.25;;;19.10;;
63050;SDS011;49136;47.416;19.402;2022-08-18T15:10:46;24.38;;;18.15;;
63050;SDS011;49136;47.416;19.402;2022-08-18T15:13:11;25.83;;;18.33;;
63050;SDS011;49136;47.416;19.402;2022-08-18T15:15:37;23.30;;;17.38;;
63050;SDS011;49136;47.416;19.402;2022-08-18T15:18:02;25.45;;;18.90;;
63050;SDS011;49136;47.416;19.402;2022-08-18T15:20:28;24.70;;;18.27;;
63050;SDS011;49136;47.416;19.402;2022-08-18T15:22:54;23.80;;;15.77;;
63050;SDS011;49136;47.416;19.402;2022-08-18T15:25:43;28.80;;;17.63;;
63050;SDS011;49136;47.416;19.402;2022-08-18T15:30:42;28.02;;;16.38;;
63050;SDS011;49136;47.416;19.402;2022-08-18T15:33:09;29.15;;;16.40;;
63050;SDS011;49136;47.416;19.402;2022-08-18T15:35:35;24.23;;;16.55;;
63050;SDS011;49136;47.416;19.402;2022-08-18T15:38:01;27.15;;;16.90;;
63050;SDS011;49136;47.416;19.402;2022-08-18T15:40:27;23.05;;;15.57;;
63050;SDS011;49136;47.416;19.402;2022-08-18T15:42:54;23.02;;;15.77;;
63050;SDS011;49136;47.416;19.402;2022-08-18T15:45:23;23.35;;;16.38;;
63050;SDS011;49136;47.416;19.402;2022-08-18T15:47:54;22.48;;;15.65;;
63050;SDS011;49136;47.416;19.402;2022-08-18T15:50:20;24.85;;;15.65;;
63050;SDS011;49136;47.416;19.402;2022-08-18T15:52:47;25.90;;;16.00;;
63050;SDS011;49136;47.416;19.402;2022-08-18T15:55:18;20.45;;;14.85;;
63050;SDS011;49136;47.416;19.402;2022-08-18T15:57:45;18.63;;;14.75;;
63050;SDS011;49136;47.416;19.402;2022-08-18T16:00:11;18.85;;;13.73;;
63050;SDS011;49136;47.416;19.402;2022-08-18T16:02:40;20.00;;;14.77;;
63050;SDS011;49136;47.416;19.402;2022-08-18T16:05:06;19.92;;;14.50;;
63050;SDS011;49136;47.416;19.402;2022-08-18T16:07:32;22.67;;;14.25;;
63050;SDS011;49136;47.416;19.402;2022-08-18T16:09:59;21.20;;;13.05;;
63050;SDS011;49136;47.416;19.402;2022-08-18T16:12:25;22.38;;;12.52;;
63050;SDS011;49136;47.416;19.402;2022-08-18T16:14:50;20.25;;;12.40;;
63050;SDS011;49136;47.416;19.402;2022-08-18T16:17:16;21.05;;;12.27;;
63050;SDS011;49136;47.416;19.402;2022-08-18T16:19:43;19.10;;;11.95;;
63050;SDS011;49136;47.416;19.402;2022-08-18T16:22:09;20.20;;;11.48;;
63050;SDS011;49136;47.416;19.402;2022-08-18T16:24:34;15.88;;;11.15;;
63050;SDS011;49136;47.416;19.402;2022-08-18T16:26:59;17.67;;;11.63;;
63050;SDS011;49136;47.416;19.402;2022-08-18T16:29:25;26.50;;;12.27;;
63050;SDS011;49136;47.416;19.402;2022-08-18T16:31:50;23.13;;;11.05;;
63050;SDS011;49136;47.416;19.402;2022-08-18T16:34:16;19.20;;;11.27;;
63050;SDS011;49136;47.416;19.402;2022-08-18T16:36:41;28.33;;;10.77;;
63050;SDS011;49136;47.416;19.402;2022-08-18T16:39:07;17.90;;;10.60;;
63050;SDS011;49136;47.416;19.402;2022-08-18T16:41:32;18.15;;;10.57;;
63050;SDS011;49136;47.416;19.402;2022-08-18T16:43:58;16.25;;;10.07;;
63050;SDS011;49136;47.416;19.402;2022-08-18T16:46:24;15.15;;;10.23;;
63050;SDS011;49136;47.416;19.402;2022-08-18T16:48:51;18.00;;;10.32;;
63050;SDS011;49136;47.416;19.402;2022-08-18T16:51:18;12.90;;;9.50;;
63050;SDS011;49136;47.416;19.402;2022-08-18T16:53:46;16.70;;;10.88;;
63050;SDS011;49136;47.416;19.402;2022-08-18T16:56:16;19.90;;;9.98;;
63050;SDS011;49136;47.416;19.402;2022-08-18T16:58:49;15.40;;;10.13;;
63050;SDS011;49136;47.416;19.402;2022-08-18T17:01:34;14.85;;;10.70;;
63050;SDS011;49136;47.416;19.402;2022-08-18T17:04:23;16.50;;;10.38;;
63050;SDS011;49136;47.416;19.402;2022-08-18T17:06:52;33.47;;;11.52;;
63050;SDS011;49136;47.416;19.402;2022-08-18T17:09:18;20.40;;;10.82;;
63050;SDS011;49136;47.416;19.402;2022-08-18T17:11:44;23.13;;;10.75;;
63050;SDS011;49136;47.416;19.402;2022-08-18T17:14:10;27.17;;;10.07;;
63050;SDS011;49136;47.416;19.402;2022-08-18T17:16:36;38.95;;;12.80;;
63050;SDS011;49136;47.416;19.402;2022-08-18T17:19:03;30.75;;;10.90;;